sensor_id;sensor_type;location;lat;lon;timestamp;P1;durP1;ratioP1;P2;durP2;ratioP2
77226;SDS011;66234;47.642;19.144;2023-06-14T00:02:50;12.90;;;5.60;;
77226;SDS011;66234;47.642;19.144;2023-06-14T00:05:53;10.30;;;4.70;;
77226;SDS011;66234;47.642;19.144;2023-06-14T00:08:56;12.70;;;5.70;;
77226;SDS011;66234;47.642;19.144;2023-06-14T00:11:58;8.35;;;5.07;;
77226;SDS011;66234;47.642;19.144;2023-06-14T00:15:01;8.15;;;5.00;;
77226;SDS011;66234;47.642;19.144;2023-06-14T00:18:04;9.38;;;5.50;;
77226;SDS011;66234;47.642;19.144;2023-06-14T00:21:07;11.10;;;6.00;;
77226;SDS011;66234;47.642;19.144;2023-06-14T00:24:09;12.53;;;5.33;;
77226;SDS011;66234;47.642;19.144;2023-06-14T00:27:12;9.88;;;5.95;;
77226;SDS011;66234;47.642;19.144;2023-06-14T00:30:15;11.10;;;6.28;;
77226;SDS011;66234;47.642;19.144;2023-06-14T00:33:18;9.63;;;5.80;;
77226;SDS011;66234;47.642;19.144;2023-06-14T00:36:20;10.67;;;5.23;;
77226;SDS011;66234;47.642;19.144;2023-06-14T00:39:23;10.77;;;5.80;;
77226;SDS011;66234;47.642;19.144;2023-06-14T00:42:26;12.32;;;5.60;;
77226;SDS011;66234;47.642;19.144;2023-06-14T00:45:29;11.13;;;6.05;;
77226;SDS011;66234;47.642;19.144;2023-06-14T00:48:33;13.23;;;5.40;;
77226;SDS011;66234;47.642;19.144;2023-06-14T00:51:38;11.97;;;5.57;;
77226;SDS011;66234;47.642;19.144;2023-06-14T00:54:41;9.97;;;5.50;;
77226;SDS011;66234;47.642;19.144;2023-06-14T00:57:45;10.02;;;5.55;;
77226;SDS011;66234;47.642;19.144;2023-06-14T01:00:48;11.30;;;6.10;;
77226;SDS011;66234;47.642;19.144;2023-06-14T01:03:50;9.98;;;5.32;;
77226;SDS011;66234;47.642;19.144;2023-06-14T01:13:46;8.45;;;5.53;;
77226;SDS011;66234;47.642;19.144;2023-06-14T01:16:49;9.30;;;5.32;;
77226;SDS011;66234;47.642;19.144;2023-06-14T01:19:55;14.23;;;6.10;;
77226;SDS011;66234;47.642;19.144;2023-06-14T01:23:00;10.83;;;5.77;;
77226;SDS011;66234;47.642;19.144;2023-06-14T01:26:05;9.20;;;5.30;;
77226;SDS011;66234;47.642;19.144;2023-06-14T01:29:08;11.27;;;5.68;;
77226;SDS011;66234;47.642;19.144;2023-06-14T01:32:10;8.68;;;5.90;;
77226;SDS011;66234;47.642;19.144;2023-06-14T01:35:13;12.27;;;6.40;;
77226;SDS011;66234;47.642;19.144;2023-06-14T01:38:17;13.20;;;6.17;;
77226;SDS011;66234;47.642;19.144;2023-06-14T01:41:23;10.40;;;5.90;;
77226;SDS011;66234;47.642;19.144;2023-06-14T01:44:27;13.40;;;5.95;;
77226;SDS011;66234;47.642;19.144;2023-06-14T01:47:31;13.57;;;7.00;;
77226;SDS011;66234;47.642;19.144;2023-06-14T01:50:36;10.27;;;5.80;;
77226;SDS011;66234;47.642;19.144;2023-06-14T01:53:39;10.17;;;5.73;;
77226;SDS011;66234;47.642;19.144;2023-06-14T01:56:45;11.90;;;6.20;;
77226;SDS011;66234;47.642;19.144;2023-06-14T01:59:47;13.25;;;6.82;;
77226;SDS011;66234;47.642;19.144;2023-06-14T02:02:50;11.20;;;6.47;;
77226;SDS011;66234;47.642;19.144;2023-06-14T02:05:54;9.00;;;5.97;;
77226;SDS011;66234;47.642;19.144;2023-06-14T02:08:58;10.53;;;6.17;;
77226;SDS011;66234;47.642;19.144;2023-06-14T02:12:03;12.77;;;6.70;;
77226;SDS011;66234;47.642;19.144;2023-06-14T02:15:06;12.70;;;6.18;;
77226;SDS011;66234;47.642;19.144;2023-06-14T02:18:09;12.23;;;6.75;;
77226;SDS011;66234;47.642;19.144;2023-06-14T02:21:12;11.70;;;5.97;;
77226;SDS011;66234;47.642;19.144;2023-06-14T02:24:15;11.63;;;6.03;;
77226;SDS011;66234;47.642;19.144;2023-06-14T02:27:18;16.37;;;6.30;;
77226;SDS011;66234;47.642;19.144;2023-06-14T02:30:20;13.05;;;6.97;;
77226;SDS011;66234;47.642;19.144;2023-06-14T02:33:23;12.98;;;6.25;;
77226;SDS011;66234;47.642;19.144;2023-06-14T02:36:27;14.38;;;6.53;;
77226;SDS011;66234;47.642;19.144;2023-06-14T02:39:35;11.77;;;5.83;;
77226;SDS011;66234;47.642;19.144;2023-06-14T02:42:38;10.33;;;5.80;;
77226;SDS011;66234;47.642;19.144;2023-06-14T02:45:41;10.50;;;6.43;;
77226;SDS011;66234;47.642;19.144;2023-06-14T02:48:43;15.18;;;6.50;;
77226;SDS011;66234;47.642;19.144;2023-06-14T02:51:46;12.38;;;6.65;;
77226;SDS011;66234;47.642;19.144;2023-06-14T02:54:49;11.97;;;6.63;;
77226;SDS011;66234;47.642;19.144;2023-06-14T02:57:53;13.23;;;7.17;;
77226;SDS011;66234;47.642;19.144;2023-06-14T03:00:57;14.43;;;7.30;;
77226;SDS011;66234;47.642;19.144;2023-06-14T03:04:00;12.30;;;6.80;;
77226;SDS011;66234;47.642;19.144;2023-06-14T03:07:07;13.38;;;6.75;;
77226;SDS011;66234;47.642;19.144;2023-06-14T03:10:15;12.97;;;6.17;;
77226;SDS011;66234;47.642;19.144;2023-06-14T03:13:19;11.73;;;5.90;;
77226;SDS011;66234;47.642;19.144;2023-06-14T03:16:25;13.40;;;6.78;;
77226;SDS011;66234;47.642;19.144;2023-06-14T03:19:27;11.95;;;6.63;;
77226;SDS011;66234;47.642;19.144;2023-06-14T03:22:31;11.98;;;6.80;;
77226;SDS011;66234;47.642;19.144;2023-06-14T03:25:36;14.40;;;6.70;;
77226;SDS011;66234;47.642;19.144;2023-06-14T03:28:40;14.63;;;6.47;;
77226;SDS011;66234;47.642;19.144;2023-06-14T03:32:00;14.95;;;6.97;;
77226;SDS011;66234;47.642;19.144;2023-06-14T03:35:10;9.70;;;6.43;;
77226;SDS011;66234;47.642;19.144;2023-06-14T03:38:21;13.57;;;6.47;;
77226;SDS011;66234;47.642;19.144;2023-06-14T03:41:24;12.37;;;6.63;;
77226;SDS011;66234;47.642;19.144;2023-06-14T03:44:29;18.53;;;6.83;;
77226;SDS011;66234;47.642;19.144;2023-06-14T03:47:32;10.75;;;6.30;;
77226;SDS011;66234;47.642;19.144;2023-06-14T03:50:35;10.85;;;5.47;;
77226;SDS011;66234;47.642;19.144;2023-06-14T03:53:40;9.18;;;6.03;;
77226;SDS011;66234;47.642;19.144;2023-06-14T03:57:03;14.53;;;6.53;;
77226;SDS011;66234;47.642;19.144;2023-06-14T04:00:06;13.00;;;6.97;;
77226;SDS011;66234;47.642;19.144;2023-06-14T04:03:17;12.50;;;6.97;;
77226;SDS011;66234;47.642;19.144;2023-06-14T04:06:22;12.30;;;6.00;;
77226;SDS011;66234;47.642;19.144;2023-06-14T04:09:27;16.95;;;6.43;;
77226;SDS011;66234;47.642;19.144;2023-06-14T04:12:29;14.83;;;6.27;;
77226;SDS011;66234;47.642;19.144;2023-06-14T04:15:34;12.03;;;6.23;;
77226;SDS011;66234;47.642;19.144;2023-06-14T04:18:38;12.57;;;5.85;;
77226;SDS011;66234;47.642;19.144;2023-06-14T04:21:40;13.35;;;7.00;;
77226;SDS011;66234;47.642;19.144;2023-06-14T04:24:44;11.93;;;6.20;;
77226;SDS011;66234;47.642;19.144;2023-06-14T04:27:51;11.53;;;6.47;;
77226;SDS011;66234;47.642;19.144;2023-06-14T04:30:55;11.33;;;6.33;;
77226;SDS011;66234;47.642;19.144;2023-06-14T04:33:58;15.15;;;6.38;;
77226;SDS011;66234;47.642;19.144;2023-06-14T04:37:01;13.23;;;6.68;;
77226;SDS011;66234;47.642;19.144;2023-06-14T04:40:07;11.90;;;6.20;;
77226;SDS011;66234;47.642;19.144;2023-06-14T04:43:14;14.73;;;6.53;;
77226;SDS011;66234;47.642;19.144;2023-06-14T04:46:20;13.33;;;5.97;;
77226;SDS011;66234;47.642;19.144;2023-06-14T04:49:23;10.68;;;5.72;;
77226;SDS011;66234;47.642;19.144;2023-06-14T04:52:29;10.73;;;5.72;;
77226;SDS011;66234;47.642;19.144;2023-06-14T04:55:33;11.63;;;5.53;;
77226;SDS011;66234;47.642;19.144;2023-06-14T04:58:37;9.47;;;5.70;;
77226;SDS011;66234;47.642;19.144;2023-06-14T05:01:40;13.30;;;6.00;;
77226;SDS011;66234;47.642;19.144;2023-06-14T05:04:43;10.18;;;5.60;;
77226;SDS011;66234;47.642;19.144;2023-06-14T05:07:46;11.52;;;5.82;;
77226;SDS011;66234;47.642;19.144;2023-06-14T05:10:49;9.98;;;5.20;;
77226;SDS011;66234;47.642;19.144;2023-06-14T05:13:52;11.40;;;5.30;;
77226;SDS011;66234;47.642;19.144;2023-06-14T05:16:54;12.87;;;6.10;;
77226;SDS011;66234;47.642;19.144;2023-06-14T05:19:57;13.15;;;5.53;;
77226;SDS011;66234;47.642;19.144;2023-06-14T05:22:59;10.55;;;5.85;;
77226;SDS011;66234;47.642;19.144;2023-06-14T05:26:03;11.77;;;5.18;;
77226;SDS011;66234;47.642;19.144;2023-06-14T05:29:06;17.57;;;5.93;;
77226;SDS011;66234;47.642;19.144;2023-06-14T05:32:09;9.73;;;5.70;;
77226;SDS011;66234;47.642;19.144;2023-06-14T05:35:12;11.30;;;4.97;;
77226;SDS011;66234;47.642;19.144;2023-06-14T05:38:15;11.85;;;5.45;;
77226;SDS011;66234;47.642;19.144;2023-06-14T05:41:18;10.23;;;5.57;;
77226;SDS011;66234;47.642;19.144;2023-06-14T05:44:24;10.97;;;5.80;;
77226;SDS011;66234;47.642;19.144;2023-06-14T05:47:30;9.87;;;5.20;;
77226;SDS011;66234;47.642;19.144;2023-06-14T05:50:38;10.68;;;5.57;;
77226;SDS011;66234;47.642;19.144;2023-06-14T05:53:40;10.00;;;6.00;;
77226;SDS011;66234;47.642;19.144;2023-06-14T05:56:43;10.38;;;5.93;;
77226;SDS011;66234;47.642;19.144;2023-06-14T05:59:47;9.63;;;6.07;;
77226;SDS011;66234;47.642;19.144;2023-06-14T06:02:49;12.93;;;5.27;;
77226;SDS011;66234;47.642;19.144;2023-06-14T06:05:52;8.30;;;4.85;;
77226;SDS011;66234;47.642;19.144;2023-06-14T06:08:55;11.85;;;5.88;;
77226;SDS011;66234;47.642;19.144;2023-06-14T06:11:58;10.48;;;5.78;;
77226;SDS011;66234;47.642;19.144;2023-06-14T06:15:00;9.73;;;5.80;;
77226;SDS011;66234;47.642;19.144;2023-06-14T06:18:03;10.43;;;5.03;;
77226;SDS011;66234;47.642;19.144;2023-06-14T06:21:06;11.05;;;5.30;;
77226;SDS011;66234;47.642;19.144;2023-06-14T06:24:09;10.88;;;5.65;;
77226;SDS011;66234;47.642;19.144;2023-06-14T06:27:11;9.27;;;4.80;;
77226;SDS011;66234;47.642;19.144;2023-06-14T06:30:15;8.50;;;5.10;;
77226;SDS011;66234;47.642;19.144;2023-06-14T06:33:18;9.00;;;5.03;;
77226;SDS011;66234;47.642;19.144;2023-06-14T06:36:20;10.45;;;4.97;;
77226;SDS011;66234;47.642;19.144;2023-06-14T06:39:23;7.93;;;4.88;;
77226;SDS011;66234;47.642;19.144;2023-06-14T06:42:26;9.02;;;4.72;;
77226;SDS011;66234;47.642;19.144;2023-06-14T06:45:31;8.77;;;4.77;;
77226;SDS011;66234;47.642;19.144;2023-06-14T06:48:33;9.20;;;4.53;;
77226;SDS011;66234;47.642;19.144;2023-06-14T06:51:36;13.10;;;5.13;;
77226;SDS011;66234;47.642;19.144;2023-06-14T06:54:39;10.05;;;4.97;;
77226;SDS011;66234;47.642;19.144;2023-06-14T06:57:42;8.75;;;4.80;;
77226;SDS011;66234;47.642;19.144;2023-06-14T07:00:44;8.90;;;5.33;;
77226;SDS011;66234;47.642;19.144;2023-06-14T07:03:47;8.13;;;4.70;;
77226;SDS011;66234;47.642;19.144;2023-06-14T07:06:50;8.18;;;5.05;;
77226;SDS011;66234;47.642;19.144;2023-06-14T07:09:52;8.57;;;5.05;;
77226;SDS011;66234;47.642;19.144;2023-06-14T07:12:55;10.82;;;4.80;;
77226;SDS011;66234;47.642;19.144;2023-06-14T07:15:59;10.27;;;5.70;;
77226;SDS011;66234;47.642;19.144;2023-06-14T07:19:07;10.43;;;4.90;;
77226;SDS011;66234;47.642;19.144;2023-06-14T07:22:10;8.20;;;4.60;;
77226;SDS011;66234;47.642;19.144;2023-06-14T07:25:12;8.23;;;4.78;;
77226;SDS011;66234;47.642;19.144;2023-06-14T07:28:17;8.68;;;4.93;;
77226;SDS011;66234;47.642;19.144;2023-06-14T07:31:21;8.73;;;5.00;;
77226;SDS011;66234;47.642;19.144;2023-06-14T07:34:23;11.17;;;5.60;;
77226;SDS011;66234;47.642;19.144;2023-06-14T07:37:26;9.02;;;4.97;;
77226;SDS011;66234;47.642;19.144;2023-06-14T07:40:29;9.82;;;5.30;;
77226;SDS011;66234;47.642;19.144;2023-06-14T07:43:32;9.27;;;5.88;;
77226;SDS011;66234;47.642;19.144;2023-06-14T07:46:35;14.97;;;5.70;;
77226;SDS011;66234;47.642;19.144;2023-06-14T07:49:38;8.17;;;4.83;;
77226;SDS011;66234;47.642;19.144;2023-06-14T07:52:40;7.45;;;4.43;;
77226;SDS011;66234;47.642;19.144;2023-06-14T07:55:43;7.30;;;4.53;;
77226;SDS011;66234;47.642;19.144;2023-06-14T07:58:55;7.20;;;4.28;;
77226;SDS011;66234;47.642;19.144;2023-06-14T08:01:57;9.23;;;4.77;;
77226;SDS011;66234;47.642;19.144;2023-06-14T08:05:00;7.43;;;4.40;;
77226;SDS011;66234;47.642;19.144;2023-06-14T08:08:05;7.32;;;4.53;;
77226;SDS011;66234;47.642;19.144;2023-06-14T08:11:07;9.57;;;4.95;;
77226;SDS011;66234;47.642;19.144;2023-06-14T08:14:10;11.43;;;5.07;;
77226;SDS011;66234;47.642;19.144;2023-06-14T08:17:13;13.20;;;5.10;;
77226;SDS011;66234;47.642;19.144;2023-06-14T08:20:16;8.43;;;5.07;;
77226;SDS011;66234;47.642;19.144;2023-06-14T08:23:19;8.88;;;5.07;;
77226;SDS011;66234;47.642;19.144;2023-06-14T08:26:23;7.93;;;4.85;;
77226;SDS011;66234;47.642;19.144;2023-06-14T08:29:26;8.65;;;5.20;;
77226;SDS011;66234;47.642;19.144;2023-06-14T08:32:31;6.37;;;4.40;;
77226;SDS011;66234;47.642;19.144;2023-06-14T08:35:34;6.73;;;4.00;;
77226;SDS011;66234;47.642;19.144;2023-06-14T08:38:39;9.32;;;5.00;;
77226;SDS011;66234;47.642;19.144;2023-06-14T08:41:42;10.10;;;5.20;;
77226;SDS011;66234;47.642;19.144;2023-06-14T08:44:48;10.82;;;5.13;;
77226;SDS011;66234;47.642;19.144;2023-06-14T08:47:51;8.60;;;4.77;;
77226;SDS011;66234;47.642;19.144;2023-06-14T08:50:55;12.37;;;4.70;;
77226;SDS011;66234;47.642;19.144;2023-06-14T08:54:04;9.23;;;4.63;;
77226;SDS011;66234;47.642;19.144;2023-06-14T08:57:07;9.10;;;5.15;;
77226;SDS011;66234;47.642;19.144;2023-06-14T09:00:10;7.32;;;4.45;;
77226;SDS011;66234;47.642;19.144;2023-06-14T09:03:15;7.03;;;4.53;;
77226;SDS011;66234;47.642;19.144;2023-06-14T09:06:19;7.30;;;4.67;;
77226;SDS011;66234;47.642;19.144;2023-06-14T09:09:25;8.00;;;4.72;;
77226;SDS011;66234;47.642;19.144;2023-06-14T09:12:28;7.20;;;4.65;;
77226;SDS011;66234;47.642;19.144;2023-06-14T09:15:32;8.07;;;4.35;;
77226;SDS011;66234;47.642;19.144;2023-06-14T09:18:54;6.73;;;3.93;;
77226;SDS011;66234;47.642;19.144;2023-06-14T09:22:02;7.43;;;3.80;;
77226;SDS011;66234;47.642;19.144;2023-06-14T09:25:05;9.05;;;4.35;;
77226;SDS011;66234;47.642;19.144;2023-06-14T09:28:09;7.07;;;4.53;;
77226;SDS011;66234;47.642;19.144;2023-06-14T09:31:13;9.18;;;4.43;;
77226;SDS011;66234;47.642;19.144;2023-06-14T09:34:17;6.73;;;4.00;;
77226;SDS011;66234;47.642;19.144;2023-06-14T09:37:31;7.73;;;4.70;;
77226;SDS011;66234;47.642;19.144;2023-06-14T09:40:36;8.60;;;4.88;;
77226;SDS011;66234;47.642;19.144;2023-06-14T09:43:39;8.13;;;4.20;;
77226;SDS011;66234;47.642;19.144;2023-06-14T09:46:42;8.75;;;4.68;;
77226;SDS011;66234;47.642;19.144;2023-06-14T09:49:46;6.87;;;3.63;;
77226;SDS011;66234;47.642;19.144;2023-06-14T09:52:50;10.03;;;4.57;;
77226;SDS011;66234;47.642;19.144;2023-06-14T09:55:55;6.60;;;3.95;;
77226;SDS011;66234;47.642;19.144;2023-06-14T09:59:00;10.13;;;4.78;;
77226;SDS011;66234;47.642;19.144;2023-06-14T10:02:28;6.85;;;4.40;;
77226;SDS011;66234;47.642;19.144;2023-06-14T10:05:41;7.83;;;4.67;;
77226;SDS011;66234;47.642;19.144;2023-06-14T10:08:52;7.10;;;4.63;;
77226;SDS011;66234;47.642;19.144;2023-06-14T10:11:59;9.25;;;4.72;;
77226;SDS011;66234;47.642;19.144;2023-06-14T10:15:09;4.63;;;3.70;;
77226;SDS011;66234;47.642;19.144;2023-06-14T10:25:12;10.20;;;4.20;;
77226;SDS011;66234;47.642;19.144;2023-06-14T10:28:19;6.45;;;3.50;;
77226;SDS011;66234;47.642;19.144;2023-06-14T10:31:39;6.18;;;4.13;;
77226;SDS011;66234;47.642;19.144;2023-06-14T10:34:52;6.53;;;3.60;;
77226;SDS011;66234;47.642;19.144;2023-06-14T10:38:07;5.67;;;3.50;;
77226;SDS011;66234;47.642;19.144;2023-06-14T10:41:14;5.43;;;3.07;;
77226;SDS011;66234;47.642;19.144;2023-06-14T10:47:23;7.38;;;2.88;;
77226;SDS011;66234;47.642;19.144;2023-06-14T10:50:47;6.47;;;3.10;;
77226;SDS011;66234;47.642;19.144;2023-06-14T10:53:51;7.90;;;3.20;;
77226;SDS011;66234;47.642;19.144;2023-06-14T10:56:54;3.80;;;3.03;;
77226;SDS011;66234;47.642;19.144;2023-06-14T10:59:59;4.10;;;2.20;;
77226;SDS011;66234;47.642;19.144;2023-06-14T11:06:47;3.90;;;2.58;;
77226;SDS011;66234;47.642;19.144;2023-06-14T11:13:09;3.43;;;2.73;;
77226;SDS011;66234;47.642;19.144;2023-06-14T11:16:13;4.15;;;2.78;;
77226;SDS011;66234;47.642;19.144;2023-06-14T11:19:17;6.32;;;3.28;;
77226;SDS011;66234;47.642;19.144;2023-06-14T11:22:20;5.13;;;2.90;;
77226;SDS011;66234;47.642;19.144;2023-06-14T11:25:23;3.60;;;3.03;;
77226;SDS011;66234;47.642;19.144;2023-06-14T11:28:35;4.57;;;3.27;;
77226;SDS011;66234;47.642;19.144;2023-06-14T11:31:42;5.95;;;3.70;;
77226;SDS011;66234;47.642;19.144;2023-06-14T11:34:47;5.57;;;4.20;;
77226;SDS011;66234;47.642;19.144;2023-06-14T11:37:53;4.47;;;3.20;;
77226;SDS011;66234;47.642;19.144;2023-06-14T11:40:59;4.83;;;3.50;;
77226;SDS011;66234;47.642;19.144;2023-06-14T11:44:02;4.60;;;2.73;;
77226;SDS011;66234;47.642;19.144;2023-06-14T11:47:06;5.38;;;3.30;;
77226;SDS011;66234;47.642;19.144;2023-06-14T11:50:09;3.65;;;2.95;;
77226;SDS011;66234;47.642;19.144;2023-06-14T11:53:12;5.18;;;3.28;;
77226;SDS011;66234;47.642;19.144;2023-06-14T11:56:16;4.00;;;3.23;;
77226;SDS011;66234;47.642;19.144;2023-06-14T11:59:20;4.17;;;3.30;;
77226;SDS011;66234;47.642;19.144;2023-06-14T12:02:23;4.70;;;3.00;;
77226;SDS011;66234;47.642;19.144;2023-06-14T12:05:27;2.90;;;2.50;;
77226;SDS011;66234;47.642;19.144;2023-06-14T12:08:37;3.90;;;2.72;;
77226;SDS011;66234;47.642;19.144;2023-06-14T12:11:43;3.38;;;3.08;;
77226;SDS011;66234;47.642;19.144;2023-06-14T12:14:46;6.30;;;3.50;;
77226;SDS011;66234;47.642;19.144;2023-06-14T12:17:49;4.82;;;3.28;;
77226;SDS011;66234;47.642;19.144;2023-06-14T12:20:53;3.53;;;2.95;;
77226;SDS011;66234;47.642;19.144;2023-06-14T12:23:55;4.28;;;3.63;;
77226;SDS011;66234;47.642;19.144;2023-06-14T12:26:58;5.30;;;3.22;;
77226;SDS011;66234;47.642;19.144;2023-06-14T12:30:09;6.10;;;3.00;;
77226;SDS011;66234;47.642;19.144;2023-06-14T12:33:32;5.72;;;3.00;;
77226;SDS011;66234;47.642;19.144;2023-06-14T12:36:35;3.90;;;3.40;;
77226;SDS011;66234;47.642;19.144;2023-06-14T12:39:45;4.57;;;3.38;;
77226;SDS011;66234;47.642;19.144;2023-06-14T12:42:48;3.63;;;3.33;;
77226;SDS011;66234;47.642;19.144;2023-06-14T12:45:52;5.47;;;3.90;;
77226;SDS011;66234;47.642;19.144;2023-06-14T12:48:55;4.53;;;3.55;;
77226;SDS011;66234;47.642;19.144;2023-06-14T12:51:58;4.53;;;3.08;;
77226;SDS011;66234;47.642;19.144;2023-06-14T12:55:00;4.68;;;3.85;;
77226;SDS011;66234;47.642;19.144;2023-06-14T12:58:03;18.55;;;4.00;;
77226;SDS011;66234;47.642;19.144;2023-06-14T13:01:06;3.50;;;2.80;;
77226;SDS011;66234;47.642;19.144;2023-06-14T13:04:09;3.70;;;3.22;;
77226;SDS011;66234;47.642;19.144;2023-06-14T13:07:12;4.18;;;3.00;;
77226;SDS011;66234;47.642;19.144;2023-06-14T13:10:17;3.20;;;2.90;;
77226;SDS011;66234;47.642;19.144;2023-06-14T13:13:20;3.67;;;3.03;;
77226;SDS011;66234;47.642;19.144;2023-06-14T13:16:23;2.87;;;2.63;;
77226;SDS011;66234;47.642;19.144;2023-06-14T13:19:26;3.85;;;2.97;;
77226;SDS011;66234;47.642;19.144;2023-06-14T13:22:28;2.60;;;2.40;;
77226;SDS011;66234;47.642;19.144;2023-06-14T13:25:31;4.03;;;2.85;;
77226;SDS011;66234;47.642;19.144;2023-06-14T13:28:34;5.13;;;2.70;;
77226;SDS011;66234;47.642;19.144;2023-06-14T13:31:37;3.47;;;2.73;;
77226;SDS011;66234;47.642;19.144;2023-06-14T13:34:40;3.30;;;2.78;;
77226;SDS011;66234;47.642;19.144;2023-06-14T13:37:42;4.18;;;2.60;;
77226;SDS011;66234;47.642;19.144;2023-06-14T13:40:45;5.07;;;2.88;;
77226;SDS011;66234;47.642;19.144;2023-06-14T13:43:48;4.50;;;2.70;;
77226;SDS011;66234;47.642;19.144;2023-06-14T13:46:50;3.47;;;2.47;;
77226;SDS011;66234;47.642;19.144;2023-06-14T13:49:53;3.40;;;2.53;;
77226;SDS011;66234;47.642;19.144;2023-06-14T13:52:56;3.70;;;2.50;;
77226;SDS011;66234;47.642;19.144;2023-06-14T13:55:58;5.03;;;2.58;;
77226;SDS011;66234;47.642;19.144;2023-06-14T13:59:01;2.85;;;2.38;;
77226;SDS011;66234;47.642;19.144;2023-06-14T14:02:04;4.70;;;2.97;;
77226;SDS011;66234;47.642;19.144;2023-06-14T14:05:08;4.50;;;2.40;;
77226;SDS011;66234;47.642;19.144;2023-06-14T14:08:11;3.08;;;2.35;;
77226;SDS011;66234;47.642;19.144;2023-06-14T14:11:13;4.82;;;2.67;;
77226;SDS011;66234;47.642;19.144;2023-06-14T14:14:18;3.60;;;2.45;;
77226;SDS011;66234;47.642;19.144;2023-06-14T14:17:20;3.33;;;2.30;;
77226;SDS011;66234;47.642;19.144;2023-06-14T14:20:23;3.85;;;2.50;;
77226;SDS011;66234;47.642;19.144;2023-06-14T14:23:26;3.33;;;3.00;;
77226;SDS011;66234;47.642;19.144;2023-06-14T14:26:28;3.45;;;2.80;;
77226;SDS011;66234;47.642;19.144;2023-06-14T14:29:31;3.17;;;2.85;;
77226;SDS011;66234;47.642;19.144;2023-06-14T14:32:34;4.37;;;2.77;;
77226;SDS011;66234;47.642;19.144;2023-06-14T14:35:36;6.13;;;2.85;;
77226;SDS011;66234;47.642;19.144;2023-06-14T14:38:39;4.35;;;3.20;;
77226;SDS011;66234;47.642;19.144;2023-06-14T14:41:41;4.97;;;3.38;;
77226;SDS011;66234;47.642;19.144;2023-06-14T14:44:44;3.92;;;3.03;;
77226;SDS011;66234;47.642;19.144;2023-06-14T14:47:47;5.73;;;2.80;;
77226;SDS011;66234;47.642;19.144;2023-06-14T14:50:49;3.00;;;2.80;;
77226;SDS011;66234;47.642;19.144;2023-06-14T14:53:52;4.65;;;3.10;;
77226;SDS011;66234;47.642;19.144;2023-06-14T14:56:57;3.22;;;2.92;;
77226;SDS011;66234;47.642;19.144;2023-06-14T14:59:59;5.07;;;3.00;;
77226;SDS011;66234;47.642;19.144;2023-06-14T15:03:02;3.40;;;3.10;;
77226;SDS011;66234;47.642;19.144;2023-06-14T15:06:05;5.90;;;2.88;;
77226;SDS011;66234;47.642;19.144;2023-06-14T15:09:07;7.45;;;2.95;;
77226;SDS011;66234;47.642;19.144;2023-06-14T15:12:10;3.40;;;2.75;;
77226;SDS011;66234;47.642;19.144;2023-06-14T15:15:13;4.30;;;2.50;;
77226;SDS011;66234;47.642;19.144;2023-06-14T15:18:15;4.50;;;3.07;;
77226;SDS011;66234;47.642;19.144;2023-06-14T15:21:19;4.70;;;2.67;;
77226;SDS011;66234;47.642;19.144;2023-06-14T15:24:21;4.10;;;2.63;;
77226;SDS011;66234;47.642;19.144;2023-06-14T15:27:43;5.50;;;2.60;;
77226;SDS011;66234;47.642;19.144;2023-06-14T15:30:46;4.67;;;3.23;;
77226;SDS011;66234;47.642;19.144;2023-06-14T15:33:48;3.47;;;2.50;;
77226;SDS011;66234;47.642;19.144;2023-06-14T15:36:51;2.67;;;2.42;;
77226;SDS011;66234;47.642;19.144;2023-06-14T15:39:56;4.57;;;2.63;;
77226;SDS011;66234;47.642;19.144;2023-06-14T15:42:58;3.33;;;2.50;;
77226;SDS011;66234;47.642;19.144;2023-06-14T15:46:02;8.73;;;2.97;;
77226;SDS011;66234;47.642;19.144;2023-06-14T15:49:12;3.07;;;2.60;;
77226;SDS011;66234;47.642;19.144;2023-06-14T15:52:18;3.15;;;2.50;;
77226;SDS011;66234;47.642;19.144;2023-06-14T15:55:20;4.55;;;2.70;;
77226;SDS011;66234;47.642;19.144;2023-06-14T15:58:23;3.78;;;2.50;;
77226;SDS011;66234;47.642;19.144;2023-06-14T16:01:26;2.60;;;2.17;;
77226;SDS011;66234;47.642;19.144;2023-06-14T16:04:29;4.27;;;2.60;;
77226;SDS011;66234;47.642;19.144;2023-06-14T16:07:32;4.68;;;2.42;;
77226;SDS011;66234;47.642;19.144;2023-06-14T16:10:35;4.10;;;2.20;;
77226;SDS011;66234;47.642;19.144;2023-06-14T16:13:40;4.90;;;2.47;;
77226;SDS011;66234;47.642;19.144;2023-06-14T16:16:44;3.40;;;2.60;;
77226;SDS011;66234;47.642;19.144;2023-06-14T16:19:49;4.17;;;2.43;;
77226;SDS011;66234;47.642;19.144;2023-06-14T16:22:51;3.30;;;2.05;;
77226;SDS011;66234;47.642;19.144;2023-06-14T16:25:54;3.47;;;2.40;;
77226;SDS011;66234;47.642;19.144;2023-06-14T16:28:56;4.15;;;2.42;;
77226;SDS011;66234;47.642;19.144;2023-06-14T16:31:59;4.57;;;2.10;;
77226;SDS011;66234;47.642;19.144;2023-06-14T16:35:02;3.10;;;2.50;;
77226;SDS011;66234;47.642;19.144;2023-06-14T16:38:05;3.60;;;2.47;;
77226;SDS011;66234;47.642;19.144;2023-06-14T16:41:07;6.30;;;2.38;;
77226;SDS011;66234;47.642;19.144;2023-06-14T16:44:10;4.10;;;2.55;;
77226;SDS011;66234;47.642;19.144;2023-06-14T16:47:12;4.70;;;2.53;;
77226;SDS011;66234;47.642;19.144;2023-06-14T16:50:15;4.33;;;2.30;;
77226;SDS011;66234;47.642;19.144;2023-06-14T16:53:18;3.80;;;2.17;;
77226;SDS011;66234;47.642;19.144;2023-06-14T16:56:20;2.17;;;1.98;;
77226;SDS011;66234;47.642;19.144;2023-06-14T16:59:28;3.00;;;2.70;;
77226;SDS011;66234;47.642;19.144;2023-06-14T17:02:31;2.83;;;2.30;;
77226;SDS011;66234;47.642;19.144;2023-06-14T17:05:34;3.57;;;2.37;;
77226;SDS011;66234;47.642;19.144;2023-06-14T17:08:37;3.90;;;2.80;;
77226;SDS011;66234;47.642;19.144;2023-06-14T17:11:39;4.25;;;2.40;;
77226;SDS011;66234;47.642;19.144;2023-06-14T17:14:42;5.80;;;2.53;;
77226;SDS011;66234;47.642;19.144;2023-06-14T17:17:46;3.47;;;2.23;;
77226;SDS011;66234;47.642;19.144;2023-06-14T17:20:49;3.23;;;2.50;;
77226;SDS011;66234;47.642;19.144;2023-06-14T17:23:53;2.58;;;2.20;;
77226;SDS011;66234;47.642;19.144;2023-06-14T17:26:58;4.28;;;2.42;;
77226;SDS011;66234;47.642;19.144;2023-06-14T17:30:01;5.28;;;2.53;;
77226;SDS011;66234;47.642;19.144;2023-06-14T17:33:10;3.43;;;2.40;;
77226;SDS011;66234;47.642;19.144;2023-06-14T17:36:17;3.67;;;2.20;;
77226;SDS011;66234;47.642;19.144;2023-06-14T17:39:20;3.22;;;2.42;;
77226;SDS011;66234;47.642;19.144;2023-06-14T17:42:22;3.28;;;2.47;;
77226;SDS011;66234;47.642;19.144;2023-06-14T17:45:25;4.88;;;2.80;;
77226;SDS011;66234;47.642;19.144;2023-06-14T17:48:28;4.07;;;2.50;;
77226;SDS011;66234;47.642;19.144;2023-06-14T17:51:37;4.30;;;2.57;;
77226;SDS011;66234;47.642;19.144;2023-06-14T17:54:40;2.95;;;2.63;;
77226;SDS011;66234;47.642;19.144;2023-06-14T17:57:42;3.95;;;2.50;;
77226;SDS011;66234;47.642;19.144;2023-06-14T18:00:48;5.15;;;2.50;;
77226;SDS011;66234;47.642;19.144;2023-06-14T18:03:52;2.73;;;2.20;;
77226;SDS011;66234;47.642;19.144;2023-06-14T18:06:54;4.27;;;2.70;;
77226;SDS011;66234;47.642;19.144;2023-06-14T18:09:57;2.50;;;2.30;;
77226;SDS011;66234;47.642;19.144;2023-06-14T18:13:00;3.78;;;3.03;;
77226;SDS011;66234;47.642;19.144;2023-06-14T18:16:03;3.55;;;2.80;;
77226;SDS011;66234;47.642;19.144;2023-06-14T18:19:06;4.20;;;2.80;;
77226;SDS011;66234;47.642;19.144;2023-06-14T18:22:09;4.23;;;2.37;;
77226;SDS011;66234;47.642;19.144;2023-06-14T18:25:12;4.28;;;2.95;;
77226;SDS011;66234;47.642;19.144;2023-06-14T18:28:19;4.32;;;2.70;;
77226;SDS011;66234;47.642;19.144;2023-06-14T18:31:22;6.00;;;2.50;;
77226;SDS011;66234;47.642;19.144;2023-06-14T18:34:25;3.90;;;2.80;;